createdAt,value
2017-02-24T00:00:33.299Z,5.78
2017-02-24T00:01:44.722Z,5.72
2017-02-24T00:02:56.164Z,5.77
2017-02-24T00:04:07.614Z,5.64
2017-02-24T00:05:19.085Z,5.67
2017-02-24T00:06:30.540Z,5.66
2017-02-24T00:07:41.975Z,5.66
2017-02-24T00:08:53.414Z,5.77
2017-02-24T00:10:04.859Z,5.7
2017-02-24T00:11:16.303Z,5.72
2017-02-24T00:12:27.736Z,5.6
2017-02-24T00:13:39.379Z,5.69
2017-02-24T00:14:50.809Z,5.55
2017-02-24T00:16:02.496Z,5.55
2017-02-24T00:17:13.930Z,5.42
2017-02-24T00:18:25.359Z,5.45
2017-02-24T00:19:36.790Z,5.3
2017-02-24T00:20:48.243Z,5.16
2017-02-24T00:21:59.682Z,5.08
2017-02-24T00:23:11.130Z,5
2017-02-24T00:24:22.573Z,5.02
2017-02-24T00:25:34.011Z,4.95
2017-02-24T00:26:45.504Z,4.87
2017-02-24T00:27:56.933Z,4.95
2017-02-24T00:29:08.353Z,4.92
2017-02-24T00:30:19.797Z,4.9
2017-02-24T00:31:31.225Z,4.91
2017-02-24T00:32:42.670Z,4.88
2017-02-24T00:33:54.117Z,4.85
2017-02-24T00:35:05.542Z,4.88
2017-02-24T00:36:16.976Z,4.83
2017-02-24T00:37:28.413Z,4.75
2017-02-24T00:38:40.038Z,4.84
2017-02-24T00:39:51.721Z,4.87
2017-02-24T00:41:03.352Z,4.83
2017-02-24T00:42:14.798Z,4.88
2017-02-24T00:43:26.435Z,4.88
2017-02-24T00:44:37.870Z,4.83
2017-02-24T00:45:49.323Z,4.83
2017-02-24T00:47:00.765Z,4.72
2017-02-24T00:48:12.237Z,4.87
2017-02-24T00:49:23.672Z,4.75
2017-02-24T00:50:35.094Z,4.64
2017-02-24T00:51:46.533Z,4.64
2017-02-24T00:52:57.971Z,4.69
2017-02-24T00:54:09.464Z,4.58
2017-02-24T00:55:20.908Z,4.61
2017-02-24T00:56:32.352Z,4.64
2017-02-24T00:57:43.797Z,4.66
2017-02-24T00:58:55.283Z,4.65
2017-02-24T01:00:06.949Z,4.66
2017-02-24T01:01:18.589Z,4.74
2017-02-24T01:02:30.033Z,4.74
2017-02-24T01:03:41.460Z,4.75
2017-02-24T01:04:52.903Z,4.78
2017-02-24T01:06:04.330Z,4.83
2017-02-24T01:07:15.779Z,4.76
2017-02-24T01:08:27.233Z,4.66
2017-02-24T01:09:38.910Z,4.61
2017-02-24T01:10:50.348Z,4.65
2017-02-24T01:12:01.789Z,4.57
2017-02-24T01:13:13.228Z,4.57
2017-02-24T01:14:24.659Z,4.57
2017-02-24T01:15:36.094Z,4.56
2017-02-24T01:16:47.536Z,4.57
2017-02-24T01:17:58.973Z,4.56
2017-02-24T01:19:10.418Z,4.58
2017-02-24T01:20:21.913Z,4.6
2017-02-24T01:21:33.343Z,4.6
2017-02-24T01:22:44.794Z,4.68
2017-02-24T01:23:56.222Z,4.57
2017-02-24T01:25:07.646Z,4.61
2017-02-24T01:26:19.129Z,4.66
2017-02-24T01:27:30.553Z,4.58
2017-02-24T01:28:42.400Z,4.61
2017-02-24T01:29:53.844Z,4.61
2017-02-24T01:31:05.283Z,4.54
2017-02-24T01:32:16.727Z,4.58
2017-02-24T01:33:28.145Z,4.64
2017-02-24T01:34:39.586Z,4.57
2017-02-24T01:35:51.004Z,4.61
2017-02-24T01:37:02.491Z,4.58
2017-02-24T01:38:14.135Z,4.56
2017-02-24T01:39:25.567Z,4.56
2017-02-24T01:40:36.995Z,4.56
2017-02-24T01:41:48.432Z,4.6
2017-02-24T01:42:59.920Z,4.48
2017-02-24T01:44:11.367Z,4.47
2017-02-24T01:45:22.987Z,4.51
2017-02-24T01:46:34.426Z,4.51
2017-02-24T01:47:45.861Z,4.48
2017-02-24T01:48:57.495Z,4.5
2017-02-24T01:50:08.928Z,4.51
2017-02-24T01:51:20.362Z,4.48
2017-02-24T01:52:31.796Z,4.46
2017-02-24T01:53:43.286Z,4.51
2017-02-24T01:54:54.701Z,4.38
2017-02-24T01:56:06.153Z,4.35
2017-02-24T01:57:17.613Z,4.4
2017-02-24T01:58:29.265Z,4.35
2017-02-24T01:59:40.710Z,4.21
2017-02-24T02:00:52.152Z,4.24
2017-02-24T02:02:03.600Z,4.35
2017-02-24T02:03:15.038Z,4.32
2017-02-24T02:04:26.657Z,4.26
2017-02-24T02:05:38.089Z,4.32
2017-02-24T02:06:49.516Z,4.2
2017-02-24T02:08:00.967Z,4.28
2017-02-24T02:09:12.687Z,4.29
2017-02-24T02:10:24.198Z,4.35
2017-02-24T02:11:35.682Z,4.38
2017-02-24T02:12:47.196Z,4.35
2017-02-24T02:13:58.713Z,4.38
2017-02-24T02:15:10.460Z,4.4
2017-02-24T02:16:21.967Z,4.46
2017-02-24T02:17:33.695Z,4.4
2017-02-24T02:18:45.404Z,4.4
2017-02-24T02:19:56.900Z,4.44
2017-02-24T02:21:08.457Z,4.6
2017-02-24T02:22:19.950Z,4.56
2017-02-24T02:23:31.452Z,4.53
2017-02-24T02:24:42.939Z,4.57
2017-02-24T02:25:54.503Z,4.58
2017-02-24T02:27:06.213Z,4.61
2017-02-24T02:28:17.706Z,4.54
2017-02-24T02:29:29.210Z,4.56
2017-02-24T02:30:40.714Z,4.57
2017-02-24T02:31:52.212Z,4.61
2017-02-24T02:33:03.900Z,4.5
2017-02-24T02:34:15.809Z,4.6
2017-02-24T02:35:27.309Z,4.6
2017-02-24T02:36:38.867Z,4.6
2017-02-24T02:37:50.349Z,4.6
2017-02-24T02:39:01.838Z,4.5
2017-02-24T02:40:13.346Z,4.57
2017-02-24T02:41:25.050Z,4.58
2017-02-24T02:42:36.599Z,4.54
2017-02-24T02:43:48.076Z,4.5
2017-02-24T02:44:59.777Z,4.47
2017-02-24T02:46:11.269Z,4.46
2017-02-24T02:47:22.791Z,4.42
2017-02-24T02:48:34.288Z,4.38
2017-02-24T02:49:45.785Z,4.5
2017-02-24T02:50:57.268Z,4.51
2017-02-24T02:52:08.958Z,4.51
2017-02-24T02:53:20.480Z,4.48
2017-02-24T02:54:31.963Z,4.44
2017-02-24T02:55:43.456Z,4.38
2017-02-24T02:56:54.948Z,4.4
2017-02-24T02:58:06.469Z,4.36
2017-02-24T02:59:17.968Z,4.39
2017-02-24T03:00:29.445Z,4.4
2017-02-24T03:01:40.948Z,4.46
2017-02-24T03:02:52.516Z,4.39
2017-02-24T03:04:04.218Z,4.46
2017-02-24T03:05:15.694Z,4.4
2017-02-24T03:06:27.200Z,4.42
2017-02-24T03:07:38.699Z,4.36
2017-02-24T03:08:50.206Z,4.35
2017-02-24T03:10:01.905Z,4.35
2017-02-24T03:11:13.406Z,4.35
2017-02-24T03:12:24.906Z,4.32
2017-02-24T03:13:36.866Z,4.36
2017-02-24T03:14:48.571Z,4.32
2017-02-24T03:16:00.037Z,4.38
2017-02-24T03:17:11.544Z,4.3
2017-02-24T03:18:23.038Z,4.44
2017-02-24T03:19:34.523Z,4.29
2017-02-24T03:20:46.077Z,4.4
2017-02-24T03:21:57.561Z,4.38
2017-02-24T03:23:09.057Z,4.47
2017-02-24T03:24:20.609Z,4.36
2017-02-24T03:25:32.095Z,4.36
2017-02-24T03:26:43.583Z,4.38
2017-02-24T03:27:55.100Z,4.3
2017-02-24T03:29:06.612Z,4.33
2017-02-24T03:30:18.097Z,4.3
2017-02-24T03:31:29.604Z,4.28
2017-02-24T03:32:41.124Z,4.35
2017-02-24T03:33:52.637Z,4.35
2017-02-24T03:35:04.112Z,4.35
2017-02-24T03:36:15.668Z,4.33
2017-02-24T03:37:27.224Z,4.32
2017-02-24T03:38:38.723Z,4.3
2017-02-24T03:39:50.235Z,4.3
2017-02-24T03:41:01.721Z,4.32
2017-02-24T03:42:13.213Z,4.3
2017-02-24T03:43:24.705Z,4.35
2017-02-24T03:44:36.437Z,4.32
2017-02-24T03:45:47.991Z,4.33
2017-02-24T03:46:59.484Z,4.28
2017-02-24T03:48:10.984Z,4.32
2017-02-24T03:49:22.493Z,4.22
2017-02-24T03:50:34.183Z,4.29
2017-02-24T03:51:45.876Z,4.28
2017-02-24T03:52:57.387Z,4.28
2017-02-24T03:54:08.876Z,4.21
2017-02-24T03:55:20.568Z,4.21
2017-02-24T03:56:32.312Z,4.2
2017-02-24T03:57:44.215Z,4.24
2017-02-24T03:58:55.724Z,4.21
2017-02-24T04:00:07.217Z,4.26
2017-02-24T04:01:18.720Z,4.21
2017-02-24T04:02:30.435Z,4.22
2017-02-24T04:03:41.935Z,4.28
2017-02-24T04:04:53.432Z,4.2
2017-02-24T04:06:05.124Z,4.18
2017-02-24T04:07:16.677Z,4.3
2017-02-24T04:08:28.161Z,4.18
2017-02-24T04:09:39.667Z,4.18
2017-02-24T04:10:51.146Z,4.18
2017-02-24T04:12:02.854Z,4.12
2017-02-24T04:13:14.565Z,4.14
2017-02-24T04:14:26.052Z,4.18
2017-02-24T04:15:37.570Z,4.17
2017-02-24T04:16:49.074Z,4.18
2017-02-24T04:18:00.552Z,4.18
2017-02-24T04:19:12.077Z,4.2
2017-02-24T04:20:23.583Z,4.21
2017-02-24T04:21:35.082Z,4.17
2017-02-24T04:22:46.568Z,4.15
2017-02-24T04:23:58.095Z,4.18
2017-02-24T04:25:09.564Z,4.15
2017-02-24T04:26:21.077Z,4.15
2017-02-24T04:27:32.782Z,4.21
2017-02-24T04:28:44.274Z,4.15
2017-02-24T04:29:55.769Z,4.2
2017-02-24T04:31:07.260Z,4.17
2017-02-24T04:32:18.742Z,4.18
2017-02-24T04:33:30.252Z,4.18
2017-02-24T04:34:41.790Z,4.17
2017-02-24T04:35:53.289Z,4.2
2017-02-24T04:37:04.964Z,4.22
2017-02-24T04:38:16.420Z,4.26
2017-02-24T04:39:27.914Z,4.14
2017-02-24T04:40:39.874Z,4.14
2017-02-24T04:41:51.385Z,4.14
2017-02-24T04:43:02.894Z,4.15
2017-02-24T04:44:14.398Z,4.15
2017-02-24T04:45:25.960Z,4.12
2017-02-24T04:46:37.471Z,4.24
2017-02-24T04:47:48.961Z,4.15
2017-02-24T04:49:00.660Z,4.15
2017-02-24T04:50:12.164Z,4.11
2017-02-24T04:51:23.646Z,4.08
2017-02-24T04:52:35.152Z,4.04
2017-02-24T04:53:46.672Z,4.12
2017-02-24T04:54:58.171Z,4.11
2017-02-24T04:56:09.711Z,4.08
2017-02-24T04:57:21.623Z,4.12
2017-02-24T04:58:33.131Z,4.15
2017-02-24T04:59:44.616Z,4.14
2017-02-24T05:00:56.117Z,4.11
2017-02-24T05:02:07.605Z,4.11
2017-02-24T05:03:19.700Z,4.11
2017-02-24T05:04:31.202Z,4.11
2017-02-24T05:05:42.697Z,4.11
2017-02-24T05:06:54.245Z,4.1
2017-02-24T05:08:05.743Z,4.18
2017-02-24T05:09:17.256Z,4.11
2017-02-24T05:10:28.782Z,4.12
2017-02-24T05:11:40.309Z,4.14
2017-02-24T05:12:51.981Z,4.1
2017-02-24T05:14:03.462Z,4.04
2017-02-24T05:15:14.934Z,4.12
2017-02-24T05:16:26.435Z,4.08
2017-02-24T05:17:38.014Z,4.1
2017-02-24T05:18:49.525Z,4.1
2017-02-24T05:20:01.021Z,4.08
2017-02-24T05:21:12.510Z,4.15
2017-02-24T05:22:24.235Z,4.07
2017-02-24T05:23:35.923Z,4.14
2017-02-24T05:24:47.656Z,4.02
2017-02-24T05:25:59.162Z,4.03
2017-02-24T05:27:10.689Z,4.04
2017-02-24T05:28:22.427Z,4.03
2017-02-24T05:29:33.915Z,4.11
2017-02-24T05:30:45.417Z,4.11
2017-02-24T05:31:56.941Z,4.07
2017-02-24T05:33:08.648Z,4.04
2017-02-24T05:34:20.155Z,4.02
2017-02-24T05:35:31.662Z,4
2017-02-24T05:36:43.148Z,4.03
2017-02-24T05:37:54.696Z,4.04
2017-02-24T05:39:06.210Z,4.02
2017-02-24T05:40:17.712Z,3.99
2017-02-24T05:41:29.228Z,4.02
2017-02-24T05:42:40.724Z,4.08
2017-02-24T05:43:52.234Z,4.03
2017-02-24T05:45:03.738Z,4
2017-02-24T05:46:15.220Z,4.03
2017-02-24T05:47:26.930Z,3.99
2017-02-24T05:48:38.424Z,4.03
2017-02-24T05:49:49.946Z,3.97
2017-02-24T05:51:01.651Z,4.07
2017-02-24T05:52:13.366Z,4
2017-02-24T05:53:25.287Z,3.9
2017-02-24T05:54:36.999Z,3.96
2017-02-24T05:55:48.514Z,4
2017-02-24T05:57:00.008Z,4
2017-02-24T05:58:11.503Z,3.97
2017-02-24T05:59:23.011Z,4.03
2017-02-24T06:00:34.564Z,4
2017-02-24T06:01:46.267Z,4.04
2017-02-24T06:02:57.767Z,4
2017-02-24T06:04:09.277Z,4.03
2017-02-24T06:05:20.778Z,3.97
2017-02-24T06:06:32.476Z,4
2017-02-24T06:07:43.976Z,4
2017-02-24T06:08:55.490Z,3.92
2017-02-24T06:10:06.988Z,3.96
2017-02-24T06:11:18.737Z,3.96
2017-02-24T06:12:30.232Z,3.92
2017-02-24T06:13:41.719Z,3.89
2017-02-24T06:14:53.204Z,3.93
2017-02-24T06:16:04.704Z,3.96
2017-02-24T06:17:16.265Z,3.97
2017-02-24T06:18:27.961Z,3.97
2017-02-24T06:19:39.661Z,3.9
2017-02-24T06:20:51.137Z,3.92
2017-02-24T06:22:02.841Z,3.85
2017-02-24T06:23:14.336Z,3.85
2017-02-24T06:24:25.801Z,3.84
2017-02-24T06:25:37.294Z,3.93
2017-02-24T06:26:48.810Z,3.86
2017-02-24T06:28:00.354Z,3.96
2017-02-24T06:29:11.841Z,3.96
2017-02-24T06:30:23.363Z,3.92
2017-02-24T06:31:34.850Z,3.94
2017-02-24T06:32:46.404Z,3.97
2017-02-24T06:33:57.911Z,3.96
2017-02-24T06:35:09.404Z,3.94
2017-02-24T06:36:21.114Z,3.94
2017-02-24T06:37:33.014Z,3.94
2017-02-24T06:38:44.698Z,3.96
2017-02-24T06:39:56.216Z,3.94
2017-02-24T06:41:07.714Z,3.97
2017-02-24T06:42:19.193Z,3.94
2017-02-24T06:43:30.717Z,4
2017-02-24T06:44:42.621Z,4
2017-02-24T06:45:54.113Z,4
2017-02-24T06:47:05.612Z,4.02
2017-02-24T06:48:17.300Z,4
2017-02-24T06:49:28.848Z,4.07
2017-02-24T06:50:40.347Z,4.02
2017-02-24T06:51:52.019Z,4.04
2017-02-24T06:53:03.489Z,4.11
2017-02-24T06:54:15.010Z,4.08
2017-02-24T06:55:26.685Z,4.04
2017-02-24T06:56:38.164Z,4.12
2017-02-24T06:57:49.648Z,4.1
2017-02-24T06:59:01.200Z,4.11
2017-02-24T07:00:12.708Z,4.08
2017-02-24T07:01:24.258Z,4.12
2017-02-24T07:02:35.956Z,4.04
2017-02-24T07:03:47.666Z,4.12
2017-02-24T07:04:59.146Z,4.14
2017-02-24T07:06:10.629Z,4.12
2017-02-24T07:07:22.124Z,4.18
2017-02-24T07:08:33.609Z,4.15
2017-02-24T07:09:45.110Z,4.15
2017-02-24T07:10:57.056Z,4.17
2017-02-24T07:12:08.539Z,4.12
2017-02-24T07:13:20.060Z,4.11
2017-02-24T07:14:31.531Z,4.17
2017-02-24T07:15:43.032Z,4.14
2017-02-24T07:16:54.528Z,4.18
2017-02-24T07:18:06.037Z,4.21
2017-02-24T07:19:17.532Z,4.26
2017-02-24T07:20:29.092Z,4.21
2017-02-24T07:21:40.571Z,4.33
2017-02-24T07:22:52.067Z,4.24
2017-02-24T07:24:03.574Z,4.29
2017-02-24T07:25:15.074Z,4.39
2017-02-24T07:26:26.594Z,4.36
2017-02-24T07:27:38.095Z,4.39
2017-02-24T07:28:49.790Z,4.47
2017-02-24T07:30:01.272Z,4.56
2017-02-24T07:31:12.844Z,4.46
2017-02-24T07:32:24.333Z,4.53
2017-02-24T07:33:35.810Z,4.6
2017-02-24T07:34:47.288Z,4.58
2017-02-24T07:35:58.807Z,4.57
2017-02-24T07:37:10.306Z,4.65
2017-02-24T07:38:21.797Z,4.66
2017-02-24T07:39:33.270Z,4.58
2017-02-24T07:40:44.771Z,4.66
2017-02-24T07:41:56.358Z,4.72
2017-02-24T07:43:08.060Z,4.75
2017-02-24T07:44:19.590Z,4.85
2017-02-24T07:45:31.074Z,4.83
2017-02-24T07:46:42.580Z,4.79
2017-02-24T07:47:54.095Z,4.72
2017-02-24T07:49:05.639Z,4.79
2017-02-24T07:50:17.146Z,4.84
2017-02-24T07:51:28.673Z,4.84
2017-02-24T07:52:40.587Z,4.88
2017-02-24T07:53:52.331Z,4.84
2017-02-24T07:55:03.815Z,4.9
2017-02-24T07:56:15.305Z,4.76
2017-02-24T07:57:26.811Z,4.9
2017-02-24T07:58:38.328Z,4.9
2017-02-24T07:59:49.842Z,4.79
2017-02-24T08:01:01.332Z,4.92
2017-02-24T08:02:12.844Z,4.92
2017-02-24T08:03:24.591Z,4.94
2017-02-24T08:04:36.071Z,4.92
2017-02-24T08:05:47.765Z,4.88
2017-02-24T08:06:59.276Z,4.94
2017-02-24T08:08:10.765Z,4.94
2017-02-24T08:09:22.251Z,4.91
2017-02-24T08:10:33.752Z,5.02
2017-02-24T08:11:45.266Z,5.13
2017-02-24T08:12:56.786Z,5.24
2017-02-24T08:14:08.337Z,5.37
2017-02-24T08:15:19.840Z,5.41
2017-02-24T08:16:31.337Z,5.57
2017-02-24T08:17:42.853Z,5.81
2017-02-24T08:18:54.354Z,6.25
2017-02-24T08:20:05.876Z,6.46
2017-02-24T08:21:17.397Z,6.73
2017-02-24T08:22:28.886Z,6.79
2017-02-24T08:23:40.389Z,6.95
2017-02-24T08:24:52.135Z,6.95
2017-02-24T08:26:03.837Z,6.94
2017-02-24T08:27:15.358Z,6.97
2017-02-24T08:28:26.844Z,7.04
2017-02-24T08:29:38.359Z,7.31
2017-02-24T08:30:49.876Z,7.56
2017-02-24T08:32:01.388Z,7.92
2017-02-24T08:33:13.102Z,8.09
2017-02-24T08:34:24.601Z,8.28
2017-02-24T08:35:36.111Z,8.26
2017-02-24T08:36:47.667Z,8.14
2017-02-24T08:37:59.191Z,7.86
2017-02-24T08:39:10.704Z,7.91
2017-02-24T08:40:22.222Z,8.09
2017-02-24T08:41:33.716Z,8.21
2017-02-24T08:42:45.228Z,8.52
2017-02-24T08:43:56.725Z,8.97
2017-02-24T08:45:08.231Z,9.04
2017-02-24T08:46:19.796Z,8.92
2017-02-24T08:47:31.485Z,8.94
2017-02-24T08:48:43.012Z,8.82
2017-02-24T08:49:54.540Z,8.8
2017-02-24T08:51:06.064Z,8.69
2017-02-24T08:52:17.582Z,8.68
2017-02-24T08:53:29.334Z,8.61
2017-02-24T08:54:40.848Z,8.46
2017-02-24T08:55:52.331Z,8.44
2017-02-24T08:57:03.902Z,8.28
2017-02-24T08:58:15.397Z,8.22
2017-02-24T08:59:26.899Z,8.13
2017-02-24T09:00:38.412Z,8.13
2017-02-24T09:01:49.932Z,8.25
2017-02-24T09:03:01.423Z,8.32
2017-02-24T09:04:13.188Z,8.46
2017-02-24T09:05:24.726Z,8.61
2017-02-24T09:06:36.249Z,8.71
2017-02-24T09:07:47.925Z,8.83
2017-02-24T09:08:59.621Z,8.82
2017-02-24T09:10:11.151Z,8.71
2017-02-24T09:11:22.634Z,8.58
2017-02-24T09:12:34.148Z,8.42
2017-02-24T09:13:45.711Z,8.43
2017-02-24T09:14:57.230Z,8.4
2017-02-24T09:16:08.733Z,8.46
2017-02-24T09:17:20.444Z,8.43
2017-02-24T09:18:31.963Z,8.65
2017-02-24T09:19:43.512Z,8.82
2017-02-24T09:20:55.019Z,8.76
2017-02-24T09:22:06.533Z,8.77
2017-02-24T09:23:18.051Z,8.9
2017-02-24T09:24:29.559Z,8.89
2017-02-24T09:25:41.055Z,9.04
2017-02-24T09:26:52.564Z,9.11
2017-02-24T09:28:04.057Z,9.29
2017-02-24T09:29:15.615Z,9.39
2017-02-24T09:30:27.136Z,9.66
2017-02-24T09:31:38.899Z,9.85
2017-02-24T09:32:50.595Z,10.17
2017-02-24T09:34:02.101Z,10.11
2017-02-24T09:35:13.596Z,10.13
2017-02-24T09:36:25.344Z,10.23
2017-02-24T09:37:36.869Z,10.38
2017-02-24T09:38:48.399Z,10.58
2017-02-24T09:39:59.953Z,10.63
2017-02-24T09:41:11.463Z,10.8
2017-02-24T09:42:23.156Z,10.9
2017-02-24T09:43:34.694Z,10.98
2017-02-24T09:44:46.214Z,11.03
2017-02-24T09:45:57.723Z,11.16
2017-02-24T09:47:09.447Z,11.31
2017-02-24T09:48:20.945Z,11.52
2017-02-24T09:49:32.458Z,11.52
2017-02-24T09:50:44.012Z,11.43
2017-02-24T09:51:55.524Z,11.56
2017-02-24T09:53:07.044Z,11.59
2017-02-24T09:54:18.751Z,11.33
2017-02-24T09:55:30.282Z,11.24
2017-02-24T09:56:41.809Z,11.46
2017-02-24T09:57:53.339Z,11.71
2017-02-24T09:59:04.848Z,11.91
2017-02-24T10:00:16.596Z,11.68
2017-02-24T10:01:28.117Z,11.26
2017-02-24T10:02:39.705Z,11.57
2017-02-24T10:03:51.430Z,11.82
2017-02-24T10:05:02.976Z,11.85
2017-02-24T10:06:14.559Z,11.82
2017-02-24T10:07:26.125Z,12.11
2017-02-24T10:08:37.631Z,12.4
2017-02-24T10:09:49.345Z,12.81
2017-02-24T10:11:01.050Z,13.17
2017-02-24T10:12:12.662Z,13.47
2017-02-24T10:13:24.235Z,13.45
2017-02-24T10:14:35.774Z,13.27
2017-02-24T10:15:47.497Z,13.53
2017-02-24T10:16:59.021Z,13.66
2017-02-24T10:18:10.560Z,13.47
2017-02-24T10:19:22.091Z,13.54
2017-02-24T10:20:33.804Z,13.66
2017-02-24T10:21:45.310Z,13.5
2017-02-24T10:22:56.872Z,13.31
2017-02-24T10:24:08.387Z,12.96
2017-02-24T10:25:19.917Z,12.59
2017-02-24T10:26:31.422Z,12.78
2017-02-24T10:27:43.129Z,13.1
2017-02-24T10:28:54.660Z,12.89
2017-02-24T10:30:06.182Z,12.58
2017-02-24T10:31:17.705Z,12.62
2017-02-24T10:32:29.238Z,12.52
2017-02-24T10:33:40.831Z,12.73
2017-02-24T10:34:52.554Z,12.52
2017-02-24T10:36:04.093Z,11.95
2017-02-24T10:37:15.632Z,11.46
2017-02-24T10:38:27.548Z,11.6
2017-02-24T10:39:39.085Z,11.66
2017-02-24T10:40:50.601Z,11.45
2017-02-24T10:42:02.101Z,11.38
2017-02-24T10:43:13.813Z,11.57
2017-02-24T10:44:25.371Z,11.46
2017-02-24T10:45:37.099Z,11.26
2017-02-24T10:46:48.607Z,11.16
2017-02-24T10:48:00.122Z,11.06
2017-02-24T10:49:11.631Z,10.87
2017-02-24T10:50:23.168Z,10.91
2017-02-24T10:51:34.711Z,11.13
2017-02-24T10:52:46.423Z,11.46
2017-02-24T10:53:58.145Z,12.01
2017-02-24T10:55:09.642Z,12.58
2017-02-24T10:56:21.146Z,13.1
2017-02-24T10:57:32.657Z,13.32
2017-02-24T10:58:44.378Z,13.07
2017-02-24T10:59:55.896Z,13.13
2017-02-24T11:01:07.458Z,13.25
2017-02-24T11:02:18.960Z,12.94
2017-02-24T11:03:30.482Z,12.43
2017-02-24T11:04:42.024Z,12.07
2017-02-24T11:05:53.523Z,12.07
2017-02-24T11:07:05.053Z,11.86
2017-02-24T11:08:16.562Z,11.57
2017-02-24T11:09:28.071Z,11.23
2017-02-24T11:10:39.607Z,11.45
2017-02-24T11:11:51.156Z,11.84
2017-02-24T11:13:02.673Z,12.26
2017-02-24T11:14:14.176Z,12.74
2017-02-24T11:15:25.710Z,13.13
2017-02-24T11:16:37.207Z,13.47
2017-02-24T11:17:48.908Z,13.69
2017-02-24T11:19:00.420Z,13.86
2017-02-24T11:20:11.932Z,13.83
2017-02-24T11:21:23.445Z,13.9
2017-02-24T11:22:34.968Z,13.84
2017-02-24T11:23:46.474Z,13.73
2017-02-24T11:24:57.989Z,13.9
2017-02-24T11:26:09.513Z,14.01
2017-02-24T11:27:21.210Z,13.81
2017-02-24T11:28:32.824Z,13.42
2017-02-24T11:29:44.324Z,13.14
2017-02-24T11:30:55.827Z,12.41
2017-02-24T11:32:07.528Z,11.89
2017-02-24T11:33:19.047Z,11.43
2017-02-24T11:34:30.553Z,10.88
2017-02-24T11:35:42.085Z,10.61
2017-02-24T11:36:53.790Z,10.07
2017-02-24T11:38:05.338Z,9.57
2017-02-24T11:39:16.900Z,9.21
2017-02-24T11:40:28.421Z,9.14
2017-02-24T11:41:39.939Z,9
2017-02-24T11:42:51.448Z,8.86
2017-02-24T11:44:03.155Z,8.76
2017-02-24T11:45:14.852Z,8.68
2017-02-24T11:46:26.363Z,8.61
2017-02-24T11:47:38.060Z,8.61
2017-02-24T11:48:49.624Z,8.53
2017-02-24T11:50:01.128Z,8.43
2017-02-24T11:51:12.611Z,8.42
2017-02-24T11:52:24.121Z,8.35
2017-02-24T11:53:35.636Z,8.36
2017-02-24T11:54:47.131Z,8.25
2017-02-24T11:55:58.618Z,8.28
2017-02-24T11:57:10.133Z,8.34
2017-02-24T11:58:21.642Z,8.46
2017-02-24T11:59:33.170Z,8.61
2017-02-24T12:00:44.661Z,8.54
2017-02-24T12:01:56.165Z,8.6
2017-02-24T12:03:07.855Z,8.72
2017-02-24T12:04:19.362Z,8.72
2017-02-24T12:05:31.058Z,8.74
2017-02-24T12:06:42.591Z,8.67
2017-02-24T12:07:54.099Z,8.62
2017-02-24T12:09:05.611Z,8.77
2017-02-24T12:10:17.114Z,9.01
2017-02-24T12:11:28.595Z,9.19
2017-02-24T12:12:40.381Z,9.32
2017-02-24T12:13:51.890Z,9.59
2017-02-24T12:15:03.598Z,9.96
2017-02-24T12:16:15.155Z,10.31
2017-02-24T12:17:26.652Z,10.33
2017-02-24T12:18:38.175Z,10.57
2017-02-24T12:19:49.886Z,10.83
2017-02-24T12:21:01.382Z,10.84
2017-02-24T12:22:12.869Z,10.67
2017-02-24T12:23:24.383Z,10.49
2017-02-24T12:24:35.904Z,10.31
2017-02-24T12:25:47.464Z,10.15
2017-02-24T12:26:58.979Z,10.03
2017-02-24T12:28:10.495Z,10.21
2017-02-24T12:29:22.009Z,10.47
2017-02-24T12:30:33.507Z,10.69
2017-02-24T12:31:45.019Z,10.9
2017-02-24T12:32:56.709Z,11.05
2017-02-24T12:34:08.213Z,11.16
2017-02-24T12:35:19.714Z,11.31
2017-02-24T12:36:31.266Z,11.56
2017-02-24T12:37:42.770Z,11.49
2017-02-24T12:38:54.290Z,11.45
2017-02-24T12:40:05.785Z,11.46
2017-02-24T12:41:17.507Z,11.43
2017-02-24T12:42:29.020Z,11.12
2017-02-24T12:43:40.533Z,11.1
2017-02-24T12:44:52.037Z,11.02
2017-02-24T12:46:03.541Z,11.08
2017-02-24T12:47:15.101Z,11.06
2017-02-24T12:48:26.584Z,11.03
2017-02-24T12:49:38.087Z,11.23
2017-02-24T12:50:49.611Z,11.3
2017-02-24T12:52:01.109Z,11.3
2017-02-24T12:53:12.791Z,11.02
2017-02-24T12:54:24.303Z,10.69
2017-02-24T12:55:35.804Z,10.36
2017-02-24T12:56:47.302Z,10.15
2017-02-24T12:57:58.809Z,10.13
2017-02-24T12:59:10.323Z,10.42
2017-02-24T13:00:21.823Z,10.69
2017-02-24T13:01:33.328Z,10.94
2017-02-24T13:02:45.040Z,10.9
2017-02-24T13:03:56.596Z,10.7
2017-02-24T13:05:08.110Z,10.61
2017-02-24T13:06:19.598Z,10.66
2017-02-24T13:07:31.110Z,10.38
2017-02-24T13:08:42.620Z,10.23
2017-02-24T13:09:54.117Z,10.07
2017-02-24T13:11:05.634Z,9.89
2017-02-24T13:12:17.129Z,9.64
2017-02-24T13:13:28.637Z,9.52
2017-02-24T13:14:40.216Z,9.56
2017-02-24T13:15:51.735Z,9.7
2017-02-24T13:17:03.243Z,9.82
2017-02-24T13:18:14.955Z,9.82
2017-02-24T13:19:26.648Z,9.84
2017-02-24T13:20:38.362Z,9.85
2017-02-24T13:21:50.078Z,9.96
2017-02-24T13:23:01.628Z,9.99
2017-02-24T13:24:13.154Z,10.1
2017-02-24T13:25:24.900Z,10.14
2017-02-24T13:26:36.415Z,10.08
2017-02-24T13:27:47.917Z,10.41
2017-02-24T13:28:59.420Z,10.69
2017-02-24T13:30:10.915Z,10.92
2017-02-24T13:31:22.411Z,11.31
2017-02-24T13:32:34.115Z,11.43
2017-02-24T13:33:45.627Z,11.59
2017-02-24T13:34:57.132Z,11.71
2017-02-24T13:36:08.678Z,11.67
2017-02-24T13:37:20.195Z,11.6
2017-02-24T13:38:31.697Z,11.38
2017-02-24T13:39:43.202Z,11.35
2017-02-24T13:40:54.711Z,11.39
2017-02-24T13:42:06.224Z,11.39
2017-02-24T13:43:17.750Z,11.41
2017-02-24T13:44:29.260Z,11.13
2017-02-24T13:45:40.763Z,11
2017-02-24T13:46:52.480Z,10.88
2017-02-24T13:48:04.017Z,10.75
2017-02-24T13:49:15.529Z,10.73
2017-02-24T13:50:27.246Z,10.67
2017-02-24T13:51:38.739Z,10.67
2017-02-24T13:52:50.246Z,10.66
2017-02-24T13:54:01.776Z,10.54
2017-02-24T13:55:13.253Z,10.51
2017-02-24T13:56:24.981Z,10.32
2017-02-24T13:57:36.538Z,10.33
2017-02-24T13:58:48.050Z,10.28
2017-02-24T13:59:59.556Z,10.32
2017-02-24T14:01:11.064Z,10.26
2017-02-24T14:02:22.558Z,10.21
2017-02-24T14:03:34.098Z,10.11
2017-02-24T14:04:45.848Z,9.98
2017-02-24T14:05:57.558Z,9.9
2017-02-24T14:07:09.270Z,9.84
2017-02-24T14:08:20.825Z,9.85
2017-02-24T14:09:32.339Z,9.85
2017-02-24T14:10:43.844Z,9.93
2017-02-24T14:11:55.562Z,10.02
2017-02-24T14:13:07.083Z,9.85
2017-02-24T14:14:18.612Z,9.88
2017-02-24T14:15:30.118Z,9.78
2017-02-24T14:16:41.630Z,9.71
2017-02-24T14:17:53.146Z,9.7
2017-02-24T14:19:04.913Z,9.67
2017-02-24T14:20:16.433Z,9.74
2017-02-24T14:21:27.946Z,9.67
2017-02-24T14:22:39.449Z,9.66
2017-02-24T14:23:50.953Z,9.78
2017-02-24T14:25:02.445Z,9.75
2017-02-24T14:26:13.950Z,9.72
2017-02-24T14:27:25.449Z,9.85
2017-02-24T14:28:36.960Z,9.78
2017-02-24T14:29:48.476Z,9.71
2017-02-24T14:31:00.036Z,9.72
2017-02-24T14:32:11.531Z,9.71
2017-02-24T14:33:23.031Z,9.74
2017-02-24T14:34:34.511Z,9.66
2017-02-24T14:35:46.096Z,9.63
2017-02-24T14:36:57.800Z,9.64
2017-02-24T14:38:09.300Z,9.7
2017-02-24T14:39:21.048Z,9.66
2017-02-24T14:40:32.538Z,9.71
2017-02-24T14:41:44.104Z,9.67
2017-02-24T14:42:55.614Z,9.56
2017-02-24T14:44:07.101Z,9.6
2017-02-24T14:45:18.603Z,9.52
2017-02-24T14:46:30.103Z,9.5
2017-02-24T14:47:41.648Z,9.45
2017-02-24T14:48:53.133Z,9.44
2017-02-24T14:50:04.843Z,9.41
2017-02-24T14:51:16.357Z,9.41
2017-02-24T14:52:27.900Z,9.42
2017-02-24T14:53:39.467Z,9.44
2017-02-24T14:54:50.978Z,9.5
2017-02-24T14:56:02.508Z,9.53
2017-02-24T14:57:14.024Z,9.48
2017-02-24T14:58:25.717Z,9.57
2017-02-24T14:59:37.268Z,9.66
2017-02-24T15:00:48.976Z,9.67
2017-02-24T15:02:00.477Z,9.77
2017-02-24T15:03:11.971Z,9.8
2017-02-24T15:04:23.461Z,9.77
2017-02-24T15:05:35.024Z,9.77
2017-02-24T15:06:46.757Z,9.84
2017-02-24T15:07:58.291Z,9.88
2017-02-24T15:09:09.806Z,9.82
2017-02-24T15:10:21.519Z,9.89
2017-02-24T15:11:33.078Z,10.02
2017-02-24T15:12:44.985Z,9.93
2017-02-24T15:13:56.492Z,9.93
2017-02-24T15:15:08.013Z,9.9
2017-02-24T15:16:19.496Z,9.82
2017-02-24T15:17:31.051Z,9.74
2017-02-24T15:18:42.593Z,9.71
2017-02-24T15:19:54.096Z,9.63
2017-02-24T15:21:05.584Z,9.57
2017-02-24T15:22:17.093Z,9.41
2017-02-24T15:23:28.664Z,9.44
2017-02-24T15:24:40.174Z,9.39
2017-02-24T15:25:51.682Z,9.38
2017-02-24T15:27:03.260Z,9.32
2017-02-24T15:28:14.756Z,9.3
2017-02-24T15:29:26.298Z,9.35
2017-02-24T15:30:37.802Z,9.37
2017-02-24T15:31:49.323Z,9.38
2017-02-24T15:33:00.846Z,9.38
2017-02-24T15:34:12.560Z,9.29
2017-02-24T15:35:24.110Z,9.3
2017-02-24T15:36:35.845Z,9.27
2017-02-24T15:37:47.331Z,9.21
2017-02-24T15:38:59.039Z,9.11
2017-02-24T15:40:10.550Z,9.11
2017-02-24T15:41:22.157Z,9.05
2017-02-24T15:42:33.645Z,8.92
2017-02-24T15:43:45.146Z,8.95
2017-02-24T15:44:56.653Z,8.94
2017-02-24T15:46:08.148Z,8.87
2017-02-24T15:47:19.712Z,8.79
2017-02-24T15:48:31.223Z,8.86
2017-02-24T15:49:42.940Z,8.87